Sea Shuttle — GDCX — position and weather

sailwx.info

Track history (hours):
 
Tides and Currents Weather Stations Pressure Air Temp Water Temp Dewpoint Dewpoint Depression Visibility Wind Speed Wind Dir Waves Ship Positions

Sea Shuttle

Last reported at 2018-Jun-24 07:43 UTC. Time now 2018-Jun-25 11:19 UTC.
Position N 38°55' E 001°32'.

Length 28 m; draft 3.5 m.

Type: Sailing vessel. MMSI: 232185000.

Date/timePositionNaut miles runAvg speedWind from/ knotsBaromVisibWave heightAir tempDewpointWater temp
2018-Jun-24 07:43N 38°55' E 001°32'2 8.2
2018-Jun-24 07:30N 38°56' E 001°34'4 8.2
2018-Jun-24 07:00N 38°59' E 001°36'43 2.5
2018-Jun-23 14:12N 39°22' E 002°23'2 8.2
2018-Jun-23 13:59N 39°23' E 002°25'3 6.4
2018-Jun-23 13:30N 39°24' E 002°28'3 5.8
2018-Jun-23 13:00N 39°26' E 002°32'3 6.3
2018-Jun-23 12:29N 39°27' E 002°35'3 6.3
2018-Jun-23 12:00N 39°29' E 002°39'3 6.6
2018-Jun-23 11:30N 39°30' E 002°43'1 1.4
2018-Jun-23 10:58N 39°30' E 002°43'0 0.0
2018-Jun-23 10:28N 39°30' E 002°43'0 0.0
2018-Jun-23 09:58N 39°30' E 002°43'0 0.0
2018-Jun-23 09:28N 39°30' E 002°43'0 0.3
2018-Jun-23 09:00N 39°30' E 002°43'4 7.7
2018-Jun-23 08:31N 39°33' E 002°39'1 2.8
2018-Jun-23 07:59N 39°34' E 002°39'0 0.0
2018-Jun-23 07:31N 39°34' E 002°39'0 0.0
2018-Jun-23 07:00N 39°34' E 002°39'0 0.0
2018-Jun-23 06:29N 39°34' E 002°39'0 0.0
2018-Jun-23 05:59N 39°34' E 002°39'0 0.0
2018-Jun-23 05:30N 39°34' E 002°39'0 0.0
2018-Jun-23 04:58N 39°34' E 002°39'0 0.0
2018-Jun-23 04:30N 39°34' E 002°39'0 0.0
2018-Jun-23 04:00N 39°34' E 002°39'0 0.0
2018-Jun-23 03:30N 39°34' E 002°39'0 0.0
2018-Jun-23 02:59N 39°34' E 002°39'0 0.0
2018-Jun-23 02:30N 39°34' E 002°39'0 0.0
2018-Jun-23 02:00N 39°34' E 002°39'0 0.0
2018-Jun-23 01:30N 39°34' E 002°39'0 0.0
2018-Jun-23 01:00N 39°34' E 002°39'0 0.0
2018-Jun-23 00:30N 39°34' E 002°39'0 0.0
2018-Jun-23 00:01N 39°34' E 002°39'0 0.0
2018-Jun-22 23:29N 39°34' E 002°39'0 0.0
2018-Jun-22 23:00N 39°34' E 002°39'0 0.0
2018-Jun-22 22:30N 39°34' E 002°39'0 0.0
2018-Jun-22 22:00N 39°34' E 002°39'0 0.0
2018-Jun-22 21:30N 39°34' E 002°39'0 0.0
2018-Jun-22 21:01N 39°34' E 002°39'0 0.0
2018-Jun-22 20:30N 39°34' E 002°39'0 0.0
2018-Jun-22 20:00N 39°34' E 002°39'0 0.0
2018-Jun-22 19:29N 39°34' E 002°39'0 0.0
2018-Jun-22 19:00N 39°34' E 002°39'0 0.0
2018-Jun-22 18:30N 39°34' E 002°39'0 0.0
2018-Jun-22 18:00N 39°34' E 002°39'0 0.0
2018-Jun-22 17:30N 39°34' E 002°39'0 0.0
2018-Jun-22 17:00N 39°34' E 002°39'0 0.0
2018-Jun-22 16:30N 39°34' E 002°39'0 0.0
2018-Jun-22 16:00N 39°34' E 002°39'0 0.0
2018-Jun-22 15:30N 39°34' E 002°39'0 0.0
2018-Jun-22 15:00N 39°34' E 002°39'0 0.0
2018-Jun-22 14:30N 39°34' E 002°39'0 0.0
2018-Jun-22 13:59N 39°34' E 002°39'0 0.0
2018-Jun-22 13:30N 39°34' E 002°39'0 0.0
2018-Jun-22 13:00N 39°34' E 002°39'0 0.0
2018-Jun-22 12:30N 39°34' E 002°39'0 0.0
2018-Jun-22 12:00N 39°34' E 002°39'0 0.0
2018-Jun-22 11:30N 39°34' E 002°39'0 0.0
2018-Jun-22 11:00N 39°34' E 002°39'0 0.0
2018-Jun-22 10:30N 39°34' E 002°39'0 0.0
2018-Jun-22 10:00N 39°34' E 002°39'0 0.0
2018-Jun-22 09:30N 39°34' E 002°39'0 0.0
2018-Jun-22 09:01N 39°34' E 002°39'0 0.0
2018-Jun-22 08:30N 39°34' E 002°39'0 0.0
2018-Jun-22 08:00N 39°34' E 002°39'0 0.0
2018-Jun-22 07:31N 39°34' E 002°39'0 0.0
2018-Jun-22 07:01N 39°34' E 002°39'0 0.0
2018-Jun-22 06:30N 39°34' E 002°39'0 0.0
2018-Jun-22 06:00N 39°34' E 002°39'0 0.0
2018-Jun-22 05:30N 39°34' E 002°39'0 0.0
2018-Jun-22 05:01N 39°34' E 002°39'0 0.0
2018-Jun-22 04:30N 39°34' E 002°39'0 0.0
2018-Jun-22 04:00N 39°34' E 002°39'0 0.0
2018-Jun-22 03:30N 39°34' E 002°39'0 0.0
2018-Jun-22 03:00N 39°34' E 002°39'0 0.0
2018-Jun-22 02:30N 39°34' E 002°39'0 0.0
2018-Jun-22 02:00N 39°34' E 002°39'0 0.0
2018-Jun-22 01:30N 39°34' E 002°39'0 0.0
2018-Jun-22 01:00N 39°34' E 002°39'0 0.0
2018-Jun-22 00:30N 39°34' E 002°39'0 0.0
2018-Jun-22 00:00N 39°34' E 002°39'0 0.0
2018-Jun-21 23:30N 39°34' E 002°39'0 0.0
2018-Jun-21 22:59N 39°34' E 002°39'0 0.0
2018-Jun-21 22:24N 39°34' E 002°39'0 0.0
2018-Jun-21 22:00N 39°34' E 002°39'0 0.0
2018-Jun-21 21:29N 39°34' E 002°39'0 0.0
2018-Jun-21 20:59N 39°34' E 002°39'0 0.0
2018-Jun-21 20:30N 39°34' E 002°39'0 0.0
2018-Jun-21 20:00N 39°34' E 002°39'0 0.0
2018-Jun-21 19:30N 39°34' E 002°39'0 0.0
2018-Jun-21 19:00N 39°34' E 002°39'0 0.0
2018-Jun-21 18:30N 39°34' E 002°39'0 0.0
2018-Jun-21 18:00N 39°34' E 002°39'0 0.0
2018-Jun-21 17:30N 39°34' E 002°39'0 0.0
2018-Jun-21 17:00N 39°34' E 002°39'0 0.0
2018-Jun-21 16:31N 39°34' E 002°39'0 0.0
2018-Jun-21 16:00N 39°34' E 002°39'0 0.0
2018-Jun-21 15:30N 39°34' E 002°39'0 0.0
2018-Jun-21 14:59N 39°34' E 002°39'0 0.0
2018-Jun-21 14:30N 39°34' E 002°39'0 0.0
2018-Jun-21 14:00N 39°34' E 002°39'0 0.0
2018-Jun-21 13:30N 39°34' E 002°39'0 0.0
2018-Jun-21 13:00N 39°34' E 002°39'0 0.0
2018-Jun-21 12:26N 39°34' E 002°39'0 0.0
2018-Jun-21 12:00N 39°34' E 002°39'0 0.0
2018-Jun-21 11:31N 39°34' E 002°39'0 0.0
2018-Jun-21 11:00N 39°34' E 002°39'0 0.0
2018-Jun-21 10:30N 39°34' E 002°39'0 0.0
2018-Jun-21 10:00N 39°34' E 002°39'0 0.0
2018-Jun-21 09:29N 39°34' E 002°39'0 0.0
2018-Jun-21 09:01N 39°34' E 002°39'0 0.0
2018-Jun-21 08:29N 39°34' E 002°39'0 0.0
2018-Jun-21 08:00N 39°34' E 002°39'0 0.0
2018-Jun-21 07:30N 39°34' E 002°39'0 0.0
2018-Jun-21 07:00N 39°34' E 002°39'0 0.0
2018-Jun-21 06:30N 39°34' E 002°39'0 0.0
2018-Jun-21 06:00N 39°34' E 002°39'0 0.0
2018-Jun-21 05:30N 39°34' E 002°39'0 0.0
2018-Jun-21 05:01N 39°34' E 002°39'0 0.0
2018-Jun-21 04:30N 39°34' E 002°39'0 0.0
2018-Jun-21 04:01N 39°34' E 002°39'0 0.0
2018-Jun-21 03:30N 39°34' E 002°39'0 0.0
2018-Jun-21 03:00N 39°34' E 002°39'0 0.0
2018-Jun-21 02:30N 39°34' E 002°39'0 0.0
2018-Jun-21 02:01N 39°34' E 002°39'0 0.0
2018-Jun-21 01:29N 39°34' E 002°39'0 0.0
2018-Jun-21 01:00N 39°34' E 002°39'0 0.0
2018-Jun-21 00:29N 39°34' E 002°39'0 0.0
2018-Jun-21 00:00N 39°34' E 002°39'0 0.0
2018-Jun-20 23:30N 39°34' E 002°39'0 0.0
2018-Jun-20 23:01N 39°34' E 002°39'0 0.0
2018-Jun-20 22:30N 39°34' E 002°39'0 0.0
2018-Jun-20 22:01N 39°34' E 002°39'0 0.0
2018-Jun-20 21:30N 39°34' E 002°39'0 0.0
2018-Jun-20 21:01N 39°34' E 002°39'0 0.0
2018-Jun-20 20:30N 39°34' E 002°39'0 0.0
2018-Jun-20 20:00N 39°34' E 002°39'0 0.0
2018-Jun-20 19:31N 39°34' E 002°39'0 0.0
2018-Jun-20 19:00N 39°34' E 002°39'0 0.0
2018-Jun-20 18:30N 39°34' E 002°39'0 0.0
2018-Jun-20 18:00N 39°34' E 002°39'0 0.0
2018-Jun-20 17:30N 39°34' E 002°39'0 0.0
2018-Jun-20 17:00N 39°34' E 002°39'0 0.0
2018-Jun-20 16:31N 39°34' E 002°39'0 0.0
2018-Jun-20 16:01N 39°34' E 002°39'0 0.0
2018-Jun-20 15:31N 39°34' E 002°39'0 0.0
2018-Jun-20 14:57N 39°34' E 002°39'0 0.0
2018-Jun-20 14:30N 39°34' E 002°39'0 0.0
2018-Jun-20 14:01N 39°34' E 002°39'0 0.0
2018-Jun-20 13:29N 39°34' E 002°39'0 0.0
2018-Jun-20 13:01N 39°34' E 002°39'0 0.0
2018-Jun-20 12:30N 39°34' E 002°39'0 0.0
2018-Jun-20 12:00N 39°34' E 002°39'0 0.0
2018-Jun-20 11:31N 39°34' E 002°39'0 0.0
2018-Jun-20 11:00N 39°34' E 002°39'0 0.0
2018-Jun-20 10:31N 39°34' E 002°39'0 0.0
2018-Jun-20 10:01N 39°34' E 002°39'0 0.0
2018-Jun-20 09:30N 39°34' E 002°39'0 0.0
2018-Jun-20 09:00N 39°34' E 002°39'0 0.0
2018-Jun-20 08:30N 39°34' E 002°39'0 0.0
2018-Jun-20 08:00N 39°34' E 002°39'0 0.0
2018-Jun-20 07:30N 39°34' E 002°39'0 0.0
2018-Jun-20 07:01N 39°34' E 002°39'0 0.0
2018-Jun-20 06:30N 39°34' E 002°39'0 0.0
2018-Jun-20 06:01N 39°34' E 002°39'0 0.0
2018-Jun-20 05:29N 39°34' E 002°39'0 0.0
2018-Jun-20 05:00N 39°34' E 002°39'0 0.0
2018-Jun-20 04:30N 39°34' E 002°39'0 0.0
2018-Jun-20 04:00N 39°34' E 002°39'0 0.0
2018-Jun-20 03:29N 39°34' E 002°39'0 0.0
2018-Jun-20 03:00N 39°34' E 002°39'0 0.0
2018-Jun-20 02:30N 39°34' E 002°39'0 0.0
2018-Jun-20 02:00N 39°34' E 002°39'0 0.0
2018-Jun-20 01:31N 39°34' E 002°39'0 0.0
2018-Jun-20 00:57N 39°34' E 002°39'0 0.0
2018-Jun-20 00:30N 39°34' E 002°39'0 0.0
2018-Jun-20 00:00N 39°34' E 002°39'0 0.0
2018-Jun-19 23:30N 39°34' E 002°39'0 0.0
2018-Jun-19 23:00N 39°34' E 002°39'0 0.0
2018-Jun-19 22:31N 39°34' E 002°39'0 0.0
2018-Jun-19 22:00N 39°34' E 002°39'0 0.0
2018-Jun-19 21:30N 39°34' E 002°39'0 0.0
2018-Jun-19 21:01N 39°34' E 002°39'0 0.0
2018-Jun-19 20:30N 39°34' E 002°39'0 0.0
2018-Jun-19 20:01N 39°34' E 002°39'0 0.0
2018-Jun-19 19:30N 39°34' E 002°39'0 0.0
2018-Jun-19 19:01N 39°34' E 002°39'0 0.0
2018-Jun-19 18:30N 39°34' E 002°39'0 0.0
2018-Jun-19 17:59N 39°34' E 002°39'0 0.0
2018-Jun-19 17:30N 39°34' E 002°39'0 0.0
2018-Jun-19 17:00N 39°34' E 002°39'0 0.0
2018-Jun-19 16:30N 39°34' E 002°39'0 0.0
2018-Jun-19 16:00N 39°34' E 002°39'0 0.0
2018-Jun-19 15:30N 39°34' E 002°39'0 0.0
2018-Jun-19 15:00N 39°34' E 002°39'0 0.0
2018-Jun-19 14:29N 39°34' E 002°39'0 0.0
2018-Jun-19 14:00N 39°34' E 002°39'0 0.0
2018-Jun-19 13:30N 39°34' E 002°39'0 0.0
2018-Jun-19 13:00N 39°34' E 002°39'0 0.0
2018-Jun-19 12:30N 39°34' E 002°39'0 0.0
2018-Jun-19 12:00N 39°34' E 002°39'0 0.0
2018-Jun-19 11:30N 39°34' E 002°39'0 0.0
2018-Jun-19 11:01N 39°34' E 002°39'0 0.0
2018-Jun-19 10:30N 39°34' E 002°39'0 0.0
2018-Jun-19 10:00N 39°34' E 002°39'0 0.0
2018-Jun-19 09:30N 39°34' E 002°39'0 0.0
2018-Jun-19 09:00N 39°34' E 002°39'0 0.0
2018-Jun-19 08:30N 39°34' E 002°39'0 0.0
2018-Jun-19 08:00N 39°34' E 002°39'0 0.0
2018-Jun-19 07:30N 39°34' E 002°39'0 0.0
2018-Jun-19 07:00N 39°34' E 002°39'0 0.0
2018-Jun-19 06:29N 39°34' E 002°39'0 0.0
2018-Jun-19 06:01N 39°34' E 002°39'0 0.0
2018-Jun-19 05:30N 39°34' E 002°39'0 0.0
2018-Jun-19 05:00N 39°34' E 002°39'0 0.0
2018-Jun-19 04:30N 39°34' E 002°39'0 0.0
2018-Jun-19 04:01N 39°34' E 002°39'0 0.0
2018-Jun-19 03:28N 39°34' E 002°39'0 0.0
2018-Jun-19 03:00N 39°34' E 002°39'0 0.0
2018-Jun-19 02:30N 39°34' E 002°39'0 0.0
2018-Jun-19 02:00N 39°34' E 002°39'0 0.0
2018-Jun-19 01:30N 39°34' E 002°39'0 0.0
2018-Jun-19 01:00N 39°34' E 002°39'0 0.0
2018-Jun-19 00:30N 39°34' E 002°39'0 0.0
2018-Jun-18 23:57N 39°34' E 002°39'0 0.0
2018-Jun-18 23:30N 39°34' E 002°39'0 0.0
2018-Jun-18 23:01N 39°34' E 002°39'0 0.0
2018-Jun-18 22:31N 39°34' E 002°39'0 0.0
2018-Jun-18 22:01N 39°34' E 002°39'0 0.0
2018-Jun-18 21:30N 39°34' E 002°39'0 0.0
2018-Jun-18 21:00N 39°34' E 002°39'0 0.0
2018-Jun-18 20:31N 39°34' E 002°39'0 0.0
2018-Jun-18 20:00N 39°34' E 002°39'0 0.0
2018-Jun-18 19:31N 39°34' E 002°39'0 0.0
2018-Jun-18 19:00N 39°34' E 002°39'0 0.0
2018-Jun-18 18:30N 39°34' E 002°39'0 0.0
2018-Jun-18 18:00N 39°34' E 002°39'0 0.0
2018-Jun-18 17:30N 39°34' E 002°39'0 0.0
2018-Jun-18 17:00N 39°34' E 002°39'0 0.0
2018-Jun-18 16:28N 39°34' E 002°39'0 0.0
2018-Jun-18 16:00N 39°34' E 002°39'0 0.0
2018-Jun-18 15:30N 39°34' E 002°39'0 0.0
2018-Jun-18 15:00N 39°34' E 002°39'0 0.0
2018-Jun-18 14:30N 39°34' E 002°39'0 0.0
2018-Jun-18 14:01N 39°34' E 002°39'0 0.0
2018-Jun-18 13:30N 39°34' E 002°39'0 0.0
2018-Jun-18 13:00N 39°34' E 002°39'0 0.0
2018-Jun-18 12:30N 39°34' E 002°39'0 0.0
2018-Jun-18 12:00N 39°34' E 002°39'0 0.0
2018-Jun-18 11:30N 39°34' E 002°39'0 0.0
2018-Jun-18 11:01N 39°34' E 002°39'0 0.0
2018-Jun-18 10:30N 39°34' E 002°39'0 0.0
2018-Jun-18 09:59N 39°34' E 002°39'0 0.0
2018-Jun-18 09:30N 39°34' E 002°39'0 0.0
2018-Jun-18 09:00N 39°34' E 002°39'0 0.0
2018-Jun-18 08:30N 39°34' E 002°39'0 0.0
2018-Jun-18 08:01N 39°34' E 002°39'0 0.0
2018-Jun-18 07:28N 39°34' E 002°39'0 0.0
2018-Jun-18 07:00N 39°34' E 002°39'0 0.0
2018-Jun-18 06:30N 39°34' E 002°39'0 0.0
2018-Jun-18 06:01N 39°34' E 002°39'0 0.0
2018-Jun-18 05:30N 39°34' E 002°39'0 0.0
2018-Jun-18 05:00N 39°34' E 002°39'0 0.0
2018-Jun-18 04:30N 39°34' E 002°39'0 0.0
2018-Jun-18 04:01N 39°34' E 002°39'0 0.0
2018-Jun-18 03:30N 39°34' E 002°39'0 0.0
2018-Jun-18 03:00N 39°34' E 002°39'0 0.0
2018-Jun-18 02:30N 39°34' E 002°39'0 0.0
2018-Jun-18 02:00N 39°34' E 002°39'0 0.0
2018-Jun-18 01:30N 39°34' E 002°39'0 0.0
2018-Jun-18 01:00N 39°34' E 002°39'0 0.0
2018-Jun-18 00:30N 39°34' E 002°39'0 0.0
2018-Jun-18 00:00N 39°34' E 002°39'0 0.0
2018-Jun-17 23:30N 39°34' E 002°39'0 0.0
2018-Jun-17 23:00N 39°34' E 002°39'0 0.0
2018-Jun-17 22:30N 39°34' E 002°39'0 0.0
2018-Jun-17 22:00N 39°34' E 002°39'0 0.0
2018-Jun-17 21:30N 39°34' E 002°39'0 0.0
2018-Jun-17 20:59N 39°34' E 002°39'0 0.0
2018-Jun-17 20:30N 39°34' E 002°39'0 0.0
2018-Jun-17 20:00N 39°34' E 002°39'0 0.0
2018-Jun-17 19:28N 39°34' E 002°39'0 0.0
2018-Jun-17 19:01N 39°34' E 002°39'0 0.0
2018-Jun-17 18:30N 39°34' E 002°39'0 0.0
2018-Jun-17 17:59N 39°34' E 002°39'0 0.0
2018-Jun-17 17:30N 39°34' E 002°39'0 0.0
2018-Jun-17 17:00N 39°34' E 002°39'0 0.0
2018-Jun-17 16:30N 39°34' E 002°39'0 0.0
2018-Jun-17 16:00N 39°34' E 002°39'0 0.0
2018-Jun-17 15:30N 39°34' E 002°39'0 0.0
2018-Jun-17 15:00N 39°34' E 002°39'0 0.0
2018-Jun-17 14:30N 39°34' E 002°39'0 0.0
2018-Jun-17 14:00N 39°34' E 002°39'0 0.0
2018-Jun-17 13:31N 39°34' E 002°39'0 0.0
2018-Jun-17 13:01N 39°34' E 002°39'0 0.0
2018-Jun-17 12:30N 39°34' E 002°39'0 0.0
2018-Jun-17 12:01N 39°34' E 002°39'0 0.0
2018-Jun-17 11:30N 39°34' E 002°39'0 0.0
2018-Jun-17 11:00N 39°34' E 002°39'0 0.0
2018-Jun-17 10:30N 39°34' E 002°39'0 0.0
2018-Jun-17 10:00N 39°34' E 002°39'0 0.0
2018-Jun-17 09:30N 39°34' E 002°39'0 0.0
2018-Jun-17 09:01N 39°34' E 002°39'0 0.0
2018-Jun-17 08:30N 39°34' E 002°39'0 0.0
2018-Jun-17 08:00N 39°34' E 002°39'0 0.0
2018-Jun-17 07:30N 39°34' E 002°39'0 0.0
2018-Jun-17 06:57N 39°34' E 002°39'0 0.0
2018-Jun-17 06:30N 39°34' E 002°39'0 0.0
2018-Jun-17 06:00N 39°34' E 002°39'0 0.0
2018-Jun-17 05:30N 39°34' E 002°39'0 0.0
2018-Jun-17 05:00N 39°34' E 002°39'0 0.0
2018-Jun-17 04:30N 39°34' E 002°39'0 0.0
2018-Jun-17 04:00N 39°34' E 002°39'0 0.0
2018-Jun-17 03:27N 39°34' E 002°39'0 0.0
2018-Jun-17 03:00N 39°34' E 002°39'0 0.0
2018-Jun-17 02:30N 39°34' E 002°39'0 0.0
2018-Jun-17 02:00N 39°34' E 002°39'0 0.0
2018-Jun-17 01:30N 39°34' E 002°39'0 0.0
2018-Jun-17 01:01N 39°34' E 002°39'0 0.0
2018-Jun-17 00:29N 39°34' E 002°39'0 0.0
2018-Jun-17 00:00N 39°34' E 002°39'0 0.0
2018-Jun-16 23:27N 39°34' E 002°39'0 0.0
2018-Jun-16 23:00N 39°34' E 002°39'0 0.0
2018-Jun-16 22:30N 39°34' E 002°39'0 0.0
2018-Jun-16 22:00N 39°34' E 002°39'0 0.0
2018-Jun-16 21:30N 39°34' E 002°39'0 0.0
2018-Jun-16 21:00N 39°34' E 002°39'0 0.0
2018-Jun-16 20:30N 39°34' E 002°39'0 0.0
2018-Jun-16 20:01N 39°34' E 002°39'0 0.0
2018-Jun-16 19:30N 39°34' E 002°39'0 0.0
2018-Jun-16 19:01N 39°34' E 002°39'0 0.0
2018-Jun-16 18:30N 39°34' E 002°39'0 0.0
2018-Jun-16 18:00N 39°34' E 002°39'0 0.0
2018-Jun-16 17:30N 39°34' E 002°39'0 0.0
2018-Jun-16 17:00N 39°34' E 002°39'0 0.0
2018-Jun-16 16:30N 39°34' E 002°39'0 0.0
2018-Jun-16 16:00N 39°34' E 002°39'0 0.0
2018-Jun-16 15:30N 39°34' E 002°39'0 0.0
2018-Jun-16 15:01N 39°34' E 002°39'0 0.0
2018-Jun-16 14:30N 39°34' E 002°39'0 0.0
2018-Jun-16 13:59N 39°34' E 002°39'0 0.0
2018-Jun-16 13:30N 39°34' E 002°39'0 0.0
2018-Jun-16 13:01N 39°34' E 002°39'0 0.0
2018-Jun-16 12:30N 39°34' E 002°39'0 0.0
2018-Jun-16 12:00N 39°34' E 002°39'0 0.0
2018-Jun-16 11:29N 39°34' E 002°39'0 0.0
2018-Jun-16 11:00N 39°34' E 002°39'0 0.0
2018-Jun-16 10:31N 39°34' E 002°39'0 0.0
2018-Jun-16 10:01N 39°34' E 002°39'0 0.0
2018-Jun-16 09:30N 39°34' E 002°39'0 0.0
2018-Jun-16 09:00N 39°34' E 002°39'0 0.0
2018-Jun-16 08:30N 39°34' E 002°39'0 0.0
2018-Jun-16 08:00N 39°34' E 002°39'0 0.0
2018-Jun-16 07:30N 39°34' E 002°39'0 0.0
2018-Jun-16 07:00N 39°34' E 002°39'0 0.0
2018-Jun-16 06:31N 39°34' E 002°39'0 0.0
2018-Jun-16 06:00N 39°34' E 002°39'0 0.0
2018-Jun-16 05:30N 39°34' E 002°39'0 0.0
2018-Jun-16 05:00N 39°34' E 002°39'0 0.0
2018-Jun-16 04:30N 39°34' E 002°39'0 0.0
2018-Jun-16 04:00N 39°34' E 002°39'0 0.0
2018-Jun-16 03:30N 39°34' E 002°39'0 0.0
2018-Jun-16 03:01N 39°34' E 002°39'0 0.0
2018-Jun-16 02:31N 39°34' E 002°39'0 0.0
2018-Jun-16 02:00N 39°34' E 002°39'0 0.0
2018-Jun-16 01:30N 39°34' E 002°39'0 0.0
2018-Jun-16 01:00N 39°34' E 002°39'0 0.0
2018-Jun-16 00:30N 39°34' E 002°39'0 0.0
2018-Jun-16 00:00N 39°34' E 002°39'0 0.0
2018-Jun-15 23:30N 39°34' E 002°39'0 0.0
2018-Jun-15 23:01N 39°34' E 002°39'0 0.0
2018-Jun-15 22:30N 39°34' E 002°39'0 0.0
2018-Jun-15 22:00N 39°34' E 002°39'0 0.0
2018-Jun-15 21:30N 39°34' E 002°39'0 0.0
2018-Jun-15 21:00N 39°34' E 002°39'0 0.0
2018-Jun-15 20:30N 39°34' E 002°39'0 0.0
2018-Jun-15 20:00N 39°34' E 002°39'0 0.0
2018-Jun-15 19:30N 39°34' E 002°39'0 0.0
2018-Jun-15 19:00N 39°34' E 002°39'0 0.0
2018-Jun-15 18:21N 39°34' E 002°39'0 0.0
2018-Jun-15 18:00N 39°34' E 002°39'0 0.0
2018-Jun-15 17:30N 39°34' E 002°39'0 0.0
2018-Jun-15 17:00N 39°34' E 002°39'0 0.0
2018-Jun-15 16:31N 39°34' E 002°39'0 0.0
2018-Jun-15 16:00N 39°34' E 002°39'0 0.0
2018-Jun-15 15:29N 39°34' E 002°39'0 0.0
2018-Jun-15 15:00N 39°34' E 002°39'0 0.0
2018-Jun-15 14:26N 39°34' E 002°39'0 0.0
2018-Jun-15 14:01N 39°34' E 002°39'0 0.0
2018-Jun-15 13:30N 39°34' E 002°39'0 0.0
2018-Jun-15 13:00N 39°34' E 002°39'0 0.0
2018-Jun-15 12:30N 39°34' E 002°39'0 0.0
2018-Jun-15 11:58N 39°34' E 002°39'0 0.0
2018-Jun-15 11:28N 39°34' E 002°39'0 0.0
2018-Jun-15 11:00N 39°34' E 002°39'0 0.0
2018-Jun-15 10:31N 39°34' E 002°39'0 0.0
2018-Jun-15 10:00N 39°34' E 002°39'0 0.0
2018-Jun-15 09:30N 39°34' E 002°39'0 0.0
2018-Jun-15 09:00N 39°34' E 002°39'0 0.0
2018-Jun-15 08:30N 39°34' E 002°39'0 0.0
2018-Jun-15 08:00N 39°34' E 002°39'0 0.0
2018-Jun-15 07:28N 39°34' E 002°39'0 0.0
2018-Jun-15 07:00N 39°34' E 002°39'0 0.0
2018-Jun-15 06:30N 39°34' E 002°39'0 0.0
2018-Jun-15 06:00N 39°34' E 002°39'0 0.0
2018-Jun-15 05:30N 39°34' E 002°39'0 0.0
2018-Jun-15 05:01N 39°34' E 002°39'0 0.0
2018-Jun-15 04:30N 39°34' E 002°39'0 0.0
2018-Jun-15 04:00N 39°34' E 002°39'0 0.0
2018-Jun-15 03:29N 39°34' E 002°39'0 0.0
2018-Jun-15 02:58N 39°34' E 002°39'0 0.0
2018-Jun-15 02:29N 39°34' E 002°39'0 0.0
2018-Jun-15 02:00N 39°34' E 002°39'0 0.0
2018-Jun-15 01:27N 39°34' E 002°39'0 0.0
2018-Jun-15 01:00N 39°34' E 002°39'0 0.0
2018-Jun-15 00:30N 39°34' E 002°39'0 0.0
2018-Jun-15 00:00N 39°34' E 002°39'0 0.0
2018-Jun-14 23:31N 39°34' E 002°39'0 0.0
2018-Jun-14 23:00N 39°34' E 002°39'0 0.0
2018-Jun-14 22:30N 39°34' E 002°39'0 0.0
2018-Jun-14 22:00N 39°34' E 002°39'0 0.0
2018-Jun-14 21:28N 39°34' E 002°39'0 0.0
2018-Jun-14 21:00N 39°34' E 002°39'0 0.0
2018-Jun-14 20:30N 39°34' E 002°39'0 0.0
2018-Jun-14 19:52N 39°34' E 002°39'0 0.0
2018-Jun-14 19:30N 39°34' E 002°39'0 0.0
2018-Jun-14 19:00N 39°34' E 002°39'0 0.0
2018-Jun-14 18:30N 39°34' E 002°39'0 0.0
2018-Jun-14 17:59N 39°34' E 002°39'0 0.0
2018-Jun-14 17:30N 39°34' E 002°39'0 0.0
2018-Jun-14 17:00N 39°34' E 002°39'0 0.0
2018-Jun-14 16:30N 39°34' E 002°39'0 0.0
2018-Jun-14 16:01N 39°34' E 002°39'0 0.0
2018-Jun-14 15:30N 39°34' E 002°39'0 0.0
2018-Jun-14 15:00N 39°34' E 002°39'0 0.0
2018-Jun-14 14:30N 39°34' E 002°39'0 0.0
2018-Jun-14 14:00N 39°34' E 002°39'0 0.0
2018-Jun-14 13:31N 39°34' E 002°39'0 0.0
2018-Jun-14 13:00N 39°34' E 002°39'0 0.0
2018-Jun-14 12:30N 39°34' E 002°39'0 0.0
2018-Jun-14 12:00N 39°34' E 002°39'0 0.0
2018-Jun-14 11:30N 39°34' E 002°39'0 0.0
2018-Jun-14 11:01N 39°34' E 002°39'0 0.0
2018-Jun-14 10:30N 39°34' E 002°39'0 0.0
2018-Jun-14 10:00N 39°34' E 002°39'0 0.0
2018-Jun-14 09:28N 39°34' E 002°39'0 0.0
2018-Jun-14 09:00N 39°34' E 002°39'0 0.0
2018-Jun-14 08:29N 39°34' E 002°39'0 0.0
2018-Jun-14 08:00N 39°34' E 002°39'  
Track history (hours):
 
Tides and Currents Weather Stations Pressure Air Temp Water Temp Dewpoint Dewpoint Depression Visibility Wind Speed Wind Dir Waves Ship Positions

Sea Shuttle

Last reported at 2018-Jun-24 07:43 UTC. Time now 2018-Jun-25 11:19 UTC.
Position N 38°55' E 001°32'.

Length 28 m; draft 3.5 m.

Type: Sailing vessel. MMSI: 232185000.

Date/timePositionNaut miles runAvg speedWind from/ knotsBaromVisibWave heightAir tempDewpointWater temp
2018-Jun-24 07:43N 38°55' E 001°32'2 8.2
2018-Jun-24 07:30N 38°56' E 001°34'4 8.2
2018-Jun-24 07:00N 38°59' E 001°36'43 2.5
2018-Jun-23 14:12N 39°22' E 002°23'2 8.2
2018-Jun-23 13:59N 39°23' E 002°25'3 6.4
2018-Jun-23 13:30N 39°24' E 002°28'3 5.8
2018-Jun-23 13:00N 39°26' E 002°32'3 6.3
2018-Jun-23 12:29N 39°27' E 002°35'3 6.3
2018-Jun-23 12:00N 39°29' E 002°39'3 6.6
2018-Jun-23 11:30N 39°30' E 002°43'1 1.4
2018-Jun-23 10:58N 39°30' E 002°43'0 0.0
2018-Jun-23 10:28N 39°30' E 002°43'0 0.0
2018-Jun-23 09:58N 39°30' E 002°43'0 0.0
2018-Jun-23 09:28N 39°30' E 002°43'0 0.3
2018-Jun-23 09:00N 39°30' E 002°43'4 7.7
2018-Jun-23 08:31N 39°33' E 002°39'1 2.8
2018-Jun-23 07:59N 39°34' E 002°39'0 0.0
2018-Jun-23 07:31N 39°34' E 002°39'0 0.0
2018-Jun-23 07:00N 39°34' E 002°39'0 0.0
2018-Jun-23 06:29N 39°34' E 002°39'0 0.0
2018-Jun-23 05:59N 39°34' E 002°39'0 0.0
2018-Jun-23 05:30N 39°34' E 002°39'0 0.0
2018-Jun-23 04:58N 39°34' E 002°39'0 0.0
2018-Jun-23 04:30N 39°34' E 002°39'0 0.0
2018-Jun-23 04:00N 39°34' E 002°39'0 0.0
2018-Jun-23 03:30N 39°34' E 002°39'0 0.0
2018-Jun-23 02:59N 39°34' E 002°39'0 0.0
2018-Jun-23 02:30N 39°34' E 002°39'0 0.0
2018-Jun-23 02:00N 39°34' E 002°39'0 0.0
2018-Jun-23 01:30N 39°34' E 002°39'0 0.0
2018-Jun-23 01:00N 39°34' E 002°39'0 0.0
2018-Jun-23 00:30N 39°34' E 002°39'0 0.0
2018-Jun-23 00:01N 39°34' E 002°39'0 0.0
2018-Jun-22 23:29N 39°34' E 002°39'0 0.0
2018-Jun-22 23:00N 39°34' E 002°39'0 0.0
2018-Jun-22 22:30N 39°34' E 002°39'0 0.0
2018-Jun-22 22:00N 39°34' E 002°39'0 0.0
2018-Jun-22 21:30N 39°34' E 002°39'0 0.0
2018-Jun-22 21:01N 39°34' E 002°39'0 0.0
2018-Jun-22 20:30N 39°34' E 002°39'0 0.0
2018-Jun-22 20:00N 39°34' E 002°39'0 0.0
2018-Jun-22 19:29N 39°34' E 002°39'0 0.0
2018-Jun-22 19:00N 39°34' E 002°39'0 0.0
2018-Jun-22 18:30N 39°34' E 002°39'0 0.0
2018-Jun-22 18:00N 39°34' E 002°39'0 0.0
2018-Jun-22 17:30N 39°34' E 002°39'0 0.0
2018-Jun-22 17:00N 39°34' E 002°39'0 0.0
2018-Jun-22 16:30N 39°34' E 002°39'0 0.0
2018-Jun-22 16:00N 39°34' E 002°39'0 0.0
2018-Jun-22 15:30N 39°34' E 002°39'0 0.0
2018-Jun-22 15:00N 39°34' E 002°39'0 0.0
2018-Jun-22 14:30N 39°34' E 002°39'0 0.0
2018-Jun-22 13:59N 39°34' E 002°39'0 0.0
2018-Jun-22 13:30N 39°34' E 002°39'0 0.0
2018-Jun-22 13:00N 39°34' E 002°39'0 0.0
2018-Jun-22 12:30N 39°34' E 002°39'0 0.0
2018-Jun-22 12:00N 39°34' E 002°39'0 0.0
2018-Jun-22 11:30N 39°34' E 002°39'0 0.0
2018-Jun-22 11:00N 39°34' E 002°39'0 0.0
2018-Jun-22 10:30N 39°34' E 002°39'0 0.0
2018-Jun-22 10:00N 39°34' E 002°39'0 0.0
2018-Jun-22 09:30N 39°34' E 002°39'0 0.0
2018-Jun-22 09:01N 39°34' E 002°39'0 0.0
2018-Jun-22 08:30N 39°34' E 002°39'0 0.0
2018-Jun-22 08:00N 39°34' E 002°39'0 0.0
2018-Jun-22 07:31N 39°34' E 002°39'0 0.0
2018-Jun-22 07:01N 39°34' E 002°39'0 0.0
2018-Jun-22 06:30N 39°34' E 002°39'0 0.0
2018-Jun-22 06:00N 39°34' E 002°39'0 0.0
2018-Jun-22 05:30N 39°34' E 002°39'0 0.0
2018-Jun-22 05:01N 39°34' E 002°39'0 0.0
2018-Jun-22 04:30N 39°34' E 002°39'0 0.0
2018-Jun-22 04:00N 39°34' E 002°39'0 0.0
2018-Jun-22 03:30N 39°34' E 002°39'0 0.0
2018-Jun-22 03:00N 39°34' E 002°39'0 0.0
2018-Jun-22 02:30N 39°34' E 002°39'0 0.0
2018-Jun-22 02:00N 39°34' E 002°39'0 0.0
2018-Jun-22 01:30N 39°34' E 002°39'0 0.0
2018-Jun-22 01:00N 39°34' E 002°39'0 0.0
2018-Jun-22 00:30N 39°34' E 002°39'0 0.0
2018-Jun-22 00:00N 39°34' E 002°39'0 0.0
2018-Jun-21 23:30N 39°34' E 002°39'0 0.0
2018-Jun-21 22:59N 39°34' E 002°39'0 0.0
2018-Jun-21 22:24N 39°34' E 002°39'0 0.0
2018-Jun-21 22:00N 39°34' E 002°39'0 0.0
2018-Jun-21 21:29N 39°34' E 002°39'0 0.0
2018-Jun-21 20:59N 39°34' E 002°39'0 0.0
2018-Jun-21 20:30N 39°34' E 002°39'0 0.0
2018-Jun-21 20:00N 39°34' E 002°39'0 0.0
2018-Jun-21 19:30N 39°34' E 002°39'0 0.0
2018-Jun-21 19:00N 39°34' E 002°39'0 0.0
2018-Jun-21 18:30N 39°34' E 002°39'0 0.0
2018-Jun-21 18:00N 39°34' E 002°39'0 0.0
2018-Jun-21 17:30N 39°34' E 002°39'0 0.0
2018-Jun-21 17:00N 39°34' E 002°39'0 0.0
2018-Jun-21 16:31N 39°34' E 002°39'0 0.0
2018-Jun-21 16:00N 39°34' E 002°39'0 0.0
2018-Jun-21 15:30N 39°34' E 002°39'0 0.0
2018-Jun-21 14:59N 39°34' E 002°39'0 0.0
2018-Jun-21 14:30N 39°34' E 002°39'0 0.0
2018-Jun-21 14:00N 39°34' E 002°39'0 0.0
2018-Jun-21 13:30N 39°34' E 002°39'0 0.0
2018-Jun-21 13:00N 39°34' E 002°39'0 0.0
2018-Jun-21 12:26N 39°34' E 002°39'0 0.0
2018-Jun-21 12:00N 39°34' E 002°39'0 0.0
2018-Jun-21 11:31N 39°34' E 002°39'0 0.0
2018-Jun-21 11:00N 39°34' E 002°39'0 0.0
2018-Jun-21 10:30N 39°34' E 002°39'0 0.0
2018-Jun-21 10:00N 39°34' E 002°39'0 0.0
2018-Jun-21 09:29N 39°34' E 002°39'0 0.0
2018-Jun-21 09:01N 39°34' E 002°39'0 0.0
2018-Jun-21 08:29N 39°34' E 002°39'0 0.0
2018-Jun-21 08:00N 39°34' E 002°39'0 0.0
2018-Jun-21 07:30N 39°34' E 002°39'0 0.0
2018-Jun-21 07:00N 39°34' E 002°39'0 0.0
2018-Jun-21 06:30N 39°34' E 002°39'0 0.0
2018-Jun-21 06:00N 39°34' E 002°39'0 0.0
2018-Jun-21 05:30N 39°34' E 002°39'0 0.0
2018-Jun-21 05:01N 39°34' E 002°39'0 0.0
2018-Jun-21 04:30N 39°34' E 002°39'0 0.0
2018-Jun-21 04:01N 39°34' E 002°39'0 0.0
2018-Jun-21 03:30N 39°34' E 002°39'0 0.0
2018-Jun-21 03:00N 39°34' E 002°39'0 0.0
2018-Jun-21 02:30N 39°34' E 002°39'0 0.0
2018-Jun-21 02:01N 39°34' E 002°39'0 0.0
2018-Jun-21 01:29N 39°34' E 002°39'0 0.0
2018-Jun-21 01:00N 39°34' E 002°39'0 0.0
2018-Jun-21 00:29N 39°34' E 002°39'0 0.0
2018-Jun-21 00:00N 39°34' E 002°39'0 0.0
2018-Jun-20 23:30N 39°34' E 002°39'0 0.0
2018-Jun-20 23:01N 39°34' E 002°39'0 0.0
2018-Jun-20 22:30N 39°34' E 002°39'0 0.0
2018-Jun-20 22:01N 39°34' E 002°39'0 0.0
2018-Jun-20 21:30N 39°34' E 002°39'0 0.0
2018-Jun-20 21:01N 39°34' E 002°39'0 0.0
2018-Jun-20 20:30N 39°34' E 002°39'0 0.0
2018-Jun-20 20:00N 39°34' E 002°39'0 0.0
2018-Jun-20 19:31N 39°34' E 002°39'0 0.0
2018-Jun-20 19:00N 39°34' E 002°39'0 0.0
2018-Jun-20 18:30N 39°34' E 002°39'0 0.0
2018-Jun-20 18:00N 39°34' E 002°39'0 0.0
2018-Jun-20 17:30N 39°34' E 002°39'0 0.0
2018-Jun-20 17:00N 39°34' E 002°39'0 0.0
2018-Jun-20 16:31N 39°34' E 002°39'0 0.0
2018-Jun-20 16:01N 39°34' E 002°39'0 0.0
2018-Jun-20 15:31N 39°34' E 002°39'0 0.0
2018-Jun-20 14:57N 39°34' E 002°39'0 0.0
2018-Jun-20 14:30N 39°34' E 002°39'0 0.0
2018-Jun-20 14:01N 39°34' E 002°39'0 0.0
2018-Jun-20 13:29N 39°34' E 002°39'0 0.0
2018-Jun-20 13:01N 39°34' E 002°39'0 0.0
2018-Jun-20 12:30N 39°34' E 002°39'0 0.0
2018-Jun-20 12:00N 39°34' E 002°39'0 0.0
2018-Jun-20 11:31N 39°34' E 002°39'0 0.0
2018-Jun-20 11:00N 39°34' E 002°39'0 0.0
2018-Jun-20 10:31N 39°34' E 002°39'0 0.0
2018-Jun-20 10:01N 39°34' E 002°39'0 0.0
2018-Jun-20 09:30N 39°34' E 002°39'0 0.0
2018-Jun-20 09:00N 39°34' E 002°39'0 0.0
2018-Jun-20 08:30N 39°34' E 002°39'0 0.0
2018-Jun-20 08:00N 39°34' E 002°39'0 0.0
2018-Jun-20 07:30N 39°34' E 002°39'0 0.0
2018-Jun-20 07:01N 39°34' E 002°39'0 0.0
2018-Jun-20 06:30N 39°34' E 002°39'0 0.0
2018-Jun-20 06:01N 39°34' E 002°39'0 0.0
2018-Jun-20 05:29N 39°34' E 002°39'0 0.0
2018-Jun-20 05:00N 39°34' E 002°39'0 0.0
2018-Jun-20 04:30N 39°34' E 002°39'0 0.0
2018-Jun-20 04:00N 39°34' E 002°39'0 0.0
2018-Jun-20 03:29N 39°34' E 002°39'0 0.0
2018-Jun-20 03:00N 39°34' E 002°39'0 0.0
2018-Jun-20 02:30N 39°34' E 002°39'0 0.0
2018-Jun-20 02:00N 39°34' E 002°39'0 0.0
2018-Jun-20 01:31N 39°34' E 002°39'0 0.0
2018-Jun-20 00:57N 39°34' E 002°39'0 0.0
2018-Jun-20 00:30N 39°34' E 002°39'0 0.0
2018-Jun-20 00:00N 39°34' E 002°39'0 0.0
2018-Jun-19 23:30N 39°34' E 002°39'0 0.0
2018-Jun-19 23:00N 39°34' E 002°39'0 0.0
2018-Jun-19 22:31N 39°34' E 002°39'0 0.0
2018-Jun-19 22:00N 39°34' E 002°39'0 0.0
2018-Jun-19 21:30N 39°34' E 002°39'0 0.0
2018-Jun-19 21:01N 39°34' E 002°39'0 0.0
2018-Jun-19 20:30N 39°34' E 002°39'0 0.0
2018-Jun-19 20:01N 39°34' E 002°39'0 0.0
2018-Jun-19 19:30N 39°34' E 002°39'0 0.0
2018-Jun-19 19:01N 39°34' E 002°39'0 0.0
2018-Jun-19 18:30N 39°34' E 002°39'0 0.0
2018-Jun-19 17:59N 39°34' E 002°39'0 0.0
2018-Jun-19 17:30N 39°34' E 002°39'0 0.0
2018-Jun-19 17:00N 39°34' E 002°39'0 0.0
2018-Jun-19 16:30N 39°34' E 002°39'0 0.0
2018-Jun-19 16:00N 39°34' E 002°39'0 0.0
2018-Jun-19 15:30N 39°34' E 002°39'0 0.0
2018-Jun-19 15:00N 39°34' E 002°39'0 0.0
2018-Jun-19 14:29N 39°34' E 002°39'0 0.0
2018-Jun-19 14:00N 39°34' E 002°39'0 0.0
2018-Jun-19 13:30N 39°34' E 002°39'0 0.0
2018-Jun-19 13:00N 39°34' E 002°39'0 0.0
2018-Jun-19 12:30N 39°34' E 002°39'0 0.0
2018-Jun-19 12:00N 39°34' E 002°39'0 0.0
2018-Jun-19 11:30N 39°34' E 002°39'0 0.0
2018-Jun-19 11:01N 39°34' E 002°39'0 0.0
2018-Jun-19 10:30N 39°34' E 002°39'0 0.0
2018-Jun-19 10:00N 39°34' E 002°39'0 0.0
2018-Jun-19 09:30N 39°34' E 002°39'0 0.0
2018-Jun-19 09:00N 39°34' E 002°39'0 0.0
2018-Jun-19 08:30N 39°34' E 002°39'0 0.0
2018-Jun-19 08:00N 39°34' E 002°39'0 0.0
2018-Jun-19 07:30N 39°34' E 002°39'0 0.0
2018-Jun-19 07:00N 39°34' E 002°39'0 0.0
2018-Jun-19 06:29N 39°34' E 002°39'0 0.0
2018-Jun-19 06:01N 39°34' E 002°39'0 0.0
2018-Jun-19 05:30N 39°34' E 002°39'0 0.0
2018-Jun-19 05:00N 39°34' E 002°39'0 0.0
2018-Jun-19 04:30N 39°34' E 002°39'0 0.0
2018-Jun-19 04:01N 39°34' E 002°39'0 0.0
2018-Jun-19 03:28N 39°34' E 002°39'0 0.0
2018-Jun-19 03:00N 39°34' E 002°39'0 0.0
2018-Jun-19 02:30N 39°34' E 002°39'0 0.0
2018-Jun-19 02:00N 39°34' E 002°39'0 0.0
2018-Jun-19 01:30N 39°34' E 002°39'0 0.0
2018-Jun-19 01:00N 39°34' E 002°39'0 0.0
2018-Jun-19 00:30N 39°34' E 002°39'0 0.0
2018-Jun-18 23:57N 39°34' E 002°39'0 0.0
2018-Jun-18 23:30N 39°34' E 002°39'0 0.0
2018-Jun-18 23:01N 39°34' E 002°39'0 0.0
2018-Jun-18 22:31N 39°34' E 002°39'0 0.0
2018-Jun-18 22:01N 39°34' E 002°39'0 0.0
2018-Jun-18 21:30N 39°34' E 002°39'0 0.0
2018-Jun-18 21:00N 39°34' E 002°39'0 0.0
2018-Jun-18 20:31N 39°34' E 002°39'0 0.0
2018-Jun-18 20:00N 39°34' E 002°39'0 0.0
2018-Jun-18 19:31N 39°34' E 002°39'0 0.0
2018-Jun-18 19:00N 39°34' E 002°39'0 0.0
2018-Jun-18 18:30N 39°34' E 002°39'0 0.0
2018-Jun-18 18:00N 39°34' E 002°39'0 0.0
2018-Jun-18 17:30N 39°34' E 002°39'0 0.0
2018-Jun-18 17:00N 39°34' E 002°39'0 0.0
2018-Jun-18 16:28N 39°34' E 002°39'0 0.0
2018-Jun-18 16:00N 39°34' E 002°39'0 0.0
2018-Jun-18 15:30N 39°34' E 002°39'0 0.0
2018-Jun-18 15:00N 39°34' E 002°39'0 0.0
2018-Jun-18 14:30N 39°34' E 002°39'0 0.0
2018-Jun-18 14:01N 39°34' E 002°39'0 0.0
2018-Jun-18 13:30N 39°34' E 002°39'0 0.0
2018-Jun-18 13:00N 39°34' E 002°39'0 0.0
2018-Jun-18 12:30N 39°34' E 002°39'0 0.0
2018-Jun-18 12:00N 39°34' E 002°39'0 0.0
2018-Jun-18 11:30N 39°34' E 002°39'0 0.0
2018-Jun-18 11:01N 39°34' E 002°39'0 0.0
2018-Jun-18 10:30N 39°34' E 002°39'0 0.0
2018-Jun-18 09:59N 39°34' E 002°39'0 0.0
2018-Jun-18 09:30N 39°34' E 002°39'0 0.0
2018-Jun-18 09:00N 39°34' E 002°39'0 0.0
2018-Jun-18 08:30N 39°34' E 002°39'0 0.0
2018-Jun-18 08:01N 39°34' E 002°39'0 0.0
2018-Jun-18 07:28N 39°34' E 002°39'0 0.0
2018-Jun-18 07:00N 39°34' E 002°39'0 0.0
2018-Jun-18 06:30N 39°34' E 002°39'0 0.0
2018-Jun-18 06:01N 39°34' E 002°39'0 0.0
2018-Jun-18 05:30N 39°34' E 002°39'0 0.0
2018-Jun-18 05:00N 39°34' E 002°39'0 0.0
2018-Jun-18 04:30N 39°34' E 002°39'0 0.0
2018-Jun-18 04:01N 39°34' E 002°39'0 0.0
2018-Jun-18 03:30N 39°34' E 002°39'0 0.0
2018-Jun-18 03:00N 39°34' E 002°39'0 0.0
2018-Jun-18 02:30N 39°34' E 002°39'0 0.0
2018-Jun-18 02:00N 39°34' E 002°39'0 0.0
2018-Jun-18 01:30N 39°34' E 002°39'0 0.0
2018-Jun-18 01:00N 39°34' E 002°39'0 0.0
2018-Jun-18 00:30N 39°34' E 002°39'0 0.0
2018-Jun-18 00:00N 39°34' E 002°39'0 0.0
2018-Jun-17 23:30N 39°34' E 002°39'0 0.0
2018-Jun-17 23:00N 39°34' E 002°39'0 0.0
2018-Jun-17 22:30N 39°34' E 002°39'0 0.0
2018-Jun-17 22:00N 39°34' E 002°39'0 0.0
2018-Jun-17 21:30N 39°34' E 002°39'0 0.0
2018-Jun-17 20:59N 39°34' E 002°39'0 0.0
2018-Jun-17 20:30N 39°34' E 002°39'0 0.0
2018-Jun-17 20:00N 39°34' E 002°39'0 0.0
2018-Jun-17 19:28N 39°34' E 002°39'0 0.0
2018-Jun-17 19:01N 39°34' E 002°39'0 0.0
2018-Jun-17 18:30N 39°34' E 002°39'0 0.0
2018-Jun-17 17:59N 39°34' E 002°39'0 0.0
2018-Jun-17 17:30N 39°34' E 002°39'0 0.0
2018-Jun-17 17:00N 39°34' E 002°39'0 0.0
2018-Jun-17 16:30N 39°34' E 002°39'0 0.0
2018-Jun-17 16:00N 39°34' E 002°39'0 0.0
2018-Jun-17 15:30N 39°34' E 002°39'0 0.0
2018-Jun-17 15:00N 39°34' E 002°39'0 0.0
2018-Jun-17 14:30N 39°34' E 002°39'0 0.0
2018-Jun-17 14:00N 39°34' E 002°39'0 0.0
2018-Jun-17 13:31N 39°34' E 002°39'0 0.0
2018-Jun-17 13:01N 39°34' E 002°39'0 0.0
2018-Jun-17 12:30N 39°34' E 002°39'0 0.0
2018-Jun-17 12:01N 39°34' E 002°39'0 0.0
2018-Jun-17 11:30N 39°34' E 002°39'0 0.0
2018-Jun-17 11:00N 39°34' E 002°39'0 0.0
2018-Jun-17 10:30N 39°34' E 002°39'0 0.0
2018-Jun-17 10:00N 39°34' E 002°39'0 0.0
2018-Jun-17 09:30N 39°34' E 002°39'0 0.0
2018-Jun-17 09:01N 39°34' E 002°39'0 0.0
2018-Jun-17 08:30N 39°34' E 002°39'0 0.0
2018-Jun-17 08:00N 39°34' E 002°39'0 0.0
2018-Jun-17 07:30N 39°34' E 002°39'0 0.0
2018-Jun-17 06:57N 39°34' E 002°39'0 0.0
2018-Jun-17 06:30N 39°34' E 002°39'0 0.0
2018-Jun-17 06:00N 39°34' E 002°39'0 0.0
2018-Jun-17 05:30N 39°34' E 002°39'0 0.0
2018-Jun-17 05:00N 39°34' E 002°39'0 0.0
2018-Jun-17 04:30N 39°34' E 002°39'0 0.0
2018-Jun-17 04:00N 39°34' E 002°39'0 0.0
2018-Jun-17 03:27N 39°34' E 002°39'0 0.0
2018-Jun-17 03:00N 39°34' E 002°39'0 0.0
2018-Jun-17 02:30N 39°34' E 002°39'0 0.0
2018-Jun-17 02:00N 39°34' E 002°39'0 0.0
2018-Jun-17 01:30N 39°34' E 002°39'0 0.0
2018-Jun-17 01:01N 39°34' E 002°39'0 0.0
2018-Jun-17 00:29N 39°34' E 002°39'0 0.0
2018-Jun-17 00:00N 39°34' E 002°39'0 0.0
2018-Jun-16 23:27N 39°34' E 002°39'0 0.0
2018-Jun-16 23:00N 39°34' E 002°39'0 0.0
2018-Jun-16 22:30N 39°34' E 002°39'0 0.0
2018-Jun-16 22:00N 39°34' E 002°39'0 0.0
2018-Jun-16 21:30N 39°34' E 002°39'0 0.0
2018-Jun-16 21:00N 39°34' E 002°39'0 0.0
2018-Jun-16 20:30N 39°34' E 002°39'0 0.0
2018-Jun-16 20:01N 39°34' E 002°39'0 0.0
2018-Jun-16 19:30N 39°34' E 002°39'0 0.0
2018-Jun-16 19:01N 39°34' E 002°39'0 0.0
2018-Jun-16 18:30N 39°34' E 002°39'0 0.0
2018-Jun-16 18:00N 39°34' E 002°39'0 0.0
2018-Jun-16 17:30N 39°34' E 002°39'0 0.0
2018-Jun-16 17:00N 39°34' E 002°39'0 0.0
2018-Jun-16 16:30N 39°34' E 002°39'0 0.0
2018-Jun-16 16:00N 39°34' E 002°39'0 0.0
2018-Jun-16 15:30N 39°34' E 002°39'0 0.0
2018-Jun-16 15:01N 39°34' E 002°39'0 0.0
2018-Jun-16 14:30N 39°34' E 002°39'0 0.0
2018-Jun-16 13:59N 39°34' E 002°39'0 0.0
2018-Jun-16 13:30N 39°34' E 002°39'0 0.0
2018-Jun-16 13:01N 39°34' E 002°39'0 0.0
2018-Jun-16 12:30N 39°34' E 002°39'0 0.0
2018-Jun-16 12:00N 39°34' E 002°39'0 0.0
2018-Jun-16 11:29N 39°34' E 002°39'0 0.0
2018-Jun-16 11:00N 39°34' E 002°39'0 0.0
2018-Jun-16 10:31N 39°34' E 002°39'0 0.0
2018-Jun-16 10:01N 39°34' E 002°39'0 0.0
2018-Jun-16 09:30N 39°34' E 002°39'0 0.0
2018-Jun-16 09:00N 39°34' E 002°39'0 0.0
2018-Jun-16 08:30N 39°34' E 002°39'0 0.0
2018-Jun-16 08:00N 39°34' E 002°39'0 0.0
2018-Jun-16 07:30N 39°34' E 002°39'0 0.0
2018-Jun-16 07:00N 39°34' E 002°39'0 0.0
2018-Jun-16 06:31N 39°34' E 002°39'0 0.0
2018-Jun-16 06:00N 39°34' E 002°39'0 0.0
2018-Jun-16 05:30N 39°34' E 002°39'0 0.0
2018-Jun-16 05:00N 39°34' E 002°39'0 0.0
2018-Jun-16 04:30N 39°34' E 002°39'0 0.0
2018-Jun-16 04:00N 39°34' E 002°39'0 0.0
2018-Jun-16 03:30N 39°34' E 002°39'0 0.0
2018-Jun-16 03:01N 39°34' E 002°39'0 0.0
2018-Jun-16 02:31N 39°34' E 002°39'0 0.0
2018-Jun-16 02:00N 39°34' E 002°39'0 0.0
2018-Jun-16 01:30N 39°34' E 002°39'0 0.0
2018-Jun-16 01:00N 39°34' E 002°39'0 0.0
2018-Jun-16 00:30N 39°34' E 002°39'0 0.0
2018-Jun-16 00:00N 39°34' E 002°39'0 0.0
2018-Jun-15 23:30N 39°34' E 002°39'0 0.0
2018-Jun-15 23:01N 39°34' E 002°39'0 0.0
2018-Jun-15 22:30N 39°34' E 002°39'0 0.0
2018-Jun-15 22:00N 39°34' E 002°39'0 0.0
2018-Jun-15 21:30N 39°34' E 002°39'0 0.0
2018-Jun-15 21:00N 39°34' E 002°39'0 0.0
2018-Jun-15 20:30N 39°34' E 002°39'0 0.0
2018-Jun-15 20:00N 39°34' E 002°39'0 0.0
2018-Jun-15 19:30N 39°34' E 002°39'0 0.0
2018-Jun-15 19:00N 39°34' E 002°39'0 0.0
2018-Jun-15 18:21N 39°34' E 002°39'0 0.0
2018-Jun-15 18:00N 39°34' E 002°39'0 0.0
2018-Jun-15 17:30N 39°34' E 002°39'0 0.0
2018-Jun-15 17:00N 39°34' E 002°39'0 0.0
2018-Jun-15 16:31N 39°34' E 002°39'0 0.0
2018-Jun-15 16:00N 39°34' E 002°39'0 0.0
2018-Jun-15 15:29N 39°34' E 002°39'0 0.0
2018-Jun-15 15:00N 39°34' E 002°39'0 0.0
2018-Jun-15 14:26N 39°34' E 002°39'0 0.0
2018-Jun-15 14:01N 39°34' E 002°39'0 0.0
2018-Jun-15 13:30N 39°34' E 002°39'0 0.0
2018-Jun-15 13:00N 39°34' E 002°39'0 0.0
2018-Jun-15 12:30N 39°34' E 002°39'0 0.0
2018-Jun-15 11:58N 39°34' E 002°39'0 0.0
2018-Jun-15 11:28N 39°34' E 002°39'0 0.0
2018-Jun-15 11:00N 39°34' E 002°39'0 0.0
2018-Jun-15 10:31N 39°34' E 002°39'0 0.0
2018-Jun-15 10:00N 39°34' E 002°39'0 0.0
2018-Jun-15 09:30N 39°34' E 002°39'0 0.0
2018-Jun-15 09:00N 39°34' E 002°39'0 0.0
2018-Jun-15 08:30N 39°34' E 002°39'0 0.0
2018-Jun-15 08:00N 39°34' E 002°39'0 0.0
2018-Jun-15 07:28N 39°34' E 002°39'0 0.0
2018-Jun-15 07:00N 39°34' E 002°39'0 0.0
2018-Jun-15 06:30N 39°34' E 002°39'0 0.0
2018-Jun-15 06:00N 39°34' E 002°39'0 0.0
2018-Jun-15 05:30N 39°34' E 002°39'0 0.0
2018-Jun-15 05:01N 39°34' E 002°39'0 0.0
2018-Jun-15 04:30N 39°34' E 002°39'0 0.0
2018-Jun-15 04:00N 39°34' E 002°39'0 0.0
2018-Jun-15 03:29N 39°34' E 002°39'0 0.0
2018-Jun-15 02:58N 39°34' E 002°39'0 0.0
2018-Jun-15 02:29N 39°34' E 002°39'0 0.0
2018-Jun-15 02:00N 39°34' E 002°39'0 0.0
2018-Jun-15 01:27N 39°34' E 002°39'0 0.0
2018-Jun-15 01:00N 39°34' E 002°39'0 0.0
2018-Jun-15 00:30N 39°34' E 002°39'0 0.0
2018-Jun-15 00:00N 39°34' E 002°39'0 0.0
2018-Jun-14 23:31N 39°34' E 002°39'0 0.0
2018-Jun-14 23:00N 39°34' E 002°39'0 0.0
2018-Jun-14 22:30N 39°34' E 002°39'0 0.0
2018-Jun-14 22:00N 39°34' E 002°39'0 0.0
2018-Jun-14 21:28N 39°34' E 002°39'0 0.0
2018-Jun-14 21:00N 39°34' E 002°39'0 0.0
2018-Jun-14 20:30N 39°34' E 002°39'0 0.0
2018-Jun-14 19:52N 39°34' E 002°39'0 0.0
2018-Jun-14 19:30N 39°34' E 002°39'0 0.0
2018-Jun-14 19:00N 39°34' E 002°39'0 0.0
2018-Jun-14 18:30N 39°34' E 002°39'0 0.0
2018-Jun-14 17:59N 39°34' E 002°39'0 0.0
2018-Jun-14 17:30N 39°34' E 002°39'0 0.0
2018-Jun-14 17:00N 39°34' E 002°39'0 0.0
2018-Jun-14 16:30N 39°34' E 002°39'0 0.0
2018-Jun-14 16:01N 39°34' E 002°39'0 0.0
2018-Jun-14 15:30N 39°34' E 002°39'0 0.0
2018-Jun-14 15:00N 39°34' E 002°39'0 0.0
2018-Jun-14 14:30N 39°34' E 002°39'0 0.0
2018-Jun-14 14:00N 39°34' E 002°39'0 0.0
2018-Jun-14 13:31N 39°34' E 002°39'0 0.0
2018-Jun-14 13:00N 39°34' E 002°39'0 0.0
2018-Jun-14 12:30N 39°34' E 002°39'0 0.0
2018-Jun-14 12:00N 39°34' E 002°39'0 0.0
2018-Jun-14 11:30N 39°34' E 002°39'0 0.0
2018-Jun-14 11:01N 39°34' E 002°39'0 0.0
2018-Jun-14 10:30N 39°34' E 002°39'0 0.0
2018-Jun-14 10:00N 39°34' E 002°39'0 0.0
2018-Jun-14 09:28N 39°34' E 002°39'0 0.0
2018-Jun-14 09:00N 39°34' E 002°39'0 0.0
2018-Jun-14 08:29N 39°34' E 002°39'0 0.0
2018-Jun-14 08:00N 39°34' E 002°39'  

Dump ship's entire track history